Time;durP1;ratioP1;P1;durP2;ratioP2;P2;SDS_P1;SDS_P2;PMS_P1;PMS_P2;Temp;Humidity;BMP_temperature;BMP_pressure;BME280_temperature;BME280_humidity;BME280_pressure;Samples;Min_cycle;Max_cycle;Signal;HPM_P1;HPM_P2
2023/05/08 05:00:30;;;;;;;20.30;18.40;;;17.40;97.20;;;;;;2131916;23;20202;-76
2023/05/08 05:01:21;;;;;;;19.73;17.75;;;17.40;97.20;;;;;;2131738;23;20652;-76
2023/05/08 05:02:12;;;;;;;20.10;18.40;;;17.40;97.20;;;;;;2131788;23;20578;-76
2023/05/08 05:03:03;;;;;;;21.73;19.73;;;17.40;97.20;;;;;;2131896;23;20184;-77
2023/05/08 05:03:55;;;;;;;26.20;19.60;;;17.40;97.20;;;;;;2131915;23;20753;-76
2023/05/08 05:04:45;;;;;;;21.42;19.42;;;17.40;97.20;;;;;;2131917;23;20187;-76
2023/05/08 05:05:36;;;;;;;22.27;20.33;;;17.40;97.20;;;;;;2131785;23;20187;-76
2023/05/08 05:06:28;;;;;;;21.43;19.50;;;17.50;97.20;;;;;;2131752;23;20170;-76
2023/05/08 05:07:18;;;;;;;21.98;20.08;;;17.50;97.20;;;;;;2131690;23;20176;-76
2023/05/08 05:08:10;;;;;;;21.60;19.60;;;17.50;97.20;;;;;;2131717;23;20172;-76
2023/05/08 05:09:01;;;;;;;22.55;20.55;;;17.50;97.20;;;;;;2131782;23;20508;-76
2023/05/08 05:09:53;;;;;;;21.87;19.47;;;17.50;97.20;;;;;;2131337;23;20180;-76
2023/05/08 05:10:43;;;;;;;21.08;19.08;;;17.50;97.20;;;;;;2131766;23;20751;-76
2023/05/08 05:11:35;;;;;;;21.00;18.90;;;17.50;97.20;;;;;;2131787;23;20197;-76
2023/05/08 05:12:26;;;;;;;20.58;18.70;;;17.50;97.20;;;;;;2131783;23;20179;-76
2023/05/08 05:13:18;;;;;;;20.73;18.87;;;17.50;97.20;;;;;;2131818;23;20172;-76
2023/05/08 05:14:09;;;;;;;20.73;18.75;;;17.50;97.20;;;;;;2131958;23;20179;-76
2023/05/08 05:15:00;;;;;;;21.70;19.60;;;17.50;97.20;;;;;;2131896;23;20176;-76
2023/05/08 05:15:53;;;;;;;21.73;19.50;;;17.50;97.20;;;;;;2131881;23;20186;-76
2023/05/08 05:16:45;;;;;;;20.30;18.60;;;17.50;97.20;;;;;;2131785;23;20218;-76
2023/05/08 05:17:35;;;;;;;19.55;17.75;;;17.50;97.20;;;;;;2131717;23;20183;-76
2023/05/08 05:18:27;;;;;;;20.97;18.87;;;17.50;97.20;;;;;;2131877;23;20172;-76
2023/05/08 05:19:18;;;;;;;20.55;18.75;;;17.50;97.20;;;;;;2131755;23;20175;-76
2023/05/08 05:20:11;;;;;;;21.30;19.30;;;17.50;97.20;;;;;;2131555;23;20172;-76
2023/05/08 05:21:02;;;;;;;23.00;21.00;;;17.50;97.20;;;;;;2131883;23;20665;-76
2023/05/08 05:21:54;;;;;;;22.67;20.48;;;17.40;97.20;;;;;;2131865;23;20514;-76
2023/05/08 05:22:44;;;;;;;21.67;19.63;;;17.40;97.20;;;;;;2131898;23;20180;-76
2023/05/08 05:23:37;;;;;;;21.87;19.87;;;17.40;97.20;;;;;;2131830;23;20171;-76
2023/05/08 05:24:27;;;;;;;23.20;21.10;;;17.40;97.20;;;;;;2131882;23;20180;-76
2023/05/08 05:25:18;;;;;;;23.20;21.00;;;17.40;97.20;;;;;;2131849;23;20638;-76
2023/05/08 05:26:10;;;;;;;21.13;19.03;;;17.40;97.20;;;;;;2131764;23;20664;-76
2023/05/08 05:27:01;;;;;;;22.42;20.23;;;17.40;97.20;;;;;;2131806;23;20514;-76
2023/05/08 05:27:52;;;;;;;21.57;19.43;;;17.40;97.20;;;;;;2131843;23;20171;-76
2023/05/08 05:28:43;;;;;;;21.75;19.75;;;17.40;97.20;;;;;;2131748;23;20172;-76
2023/05/08 05:29:35;;;;;;;20.70;18.73;;;17.40;97.20;;;;;;2131400;23;20172;-76
2023/05/08 05:30:26;;;;;;;20.75;18.73;;;17.40;97.20;;;;;;2130696;23;20693;-76
2023/05/08 05:31:19;;;;;;;19.93;18.13;;;17.40;97.20;;;;;;2131699;23;20501;-76
2023/05/08 05:32:10;;;;;;;18.80;17.08;;;17.40;97.20;;;;;;2131858;23;20187;-76
2023/05/08 05:33:02;;;;;;;18.60;16.92;;;17.40;97.20;;;;;;2131838;23;20254;-76
2023/05/08 05:33:52;;;;;;;18.67;17.05;;;17.40;97.20;;;;;;2131809;23;20180;-76
2023/05/08 05:34:44;;;;;;;19.47;17.73;;;17.40;97.20;;;;;;2131877;23;20176;-76
2023/05/08 05:35:35;;;;;;;17.75;16.05;;;17.40;97.20;;;;;;2131808;23;20187;-76
2023/05/08 05:36:27;;;;;;;18.20;16.63;;;17.40;97.20;;;;;;2131795;23;20174;-76
2023/05/08 05:37:18;;;;;;;16.88;15.40;;;17.40;97.20;;;;;;2131606;23;20180;-76
2023/05/08 05:38:10;;;;;;;17.98;16.38;;;17.40;97.20;;;;;;2131534;23;20293;-76
2023/05/08 05:39:00;;;;;;;18.92;17.23;;;17.40;97.20;;;;;;2131774;23;20187;-76
2023/05/08 05:39:52;;;;;;;18.60;17.00;;;17.40;97.20;;;;;;2131462;23;20171;-76
2023/05/08 05:40:43;;;;;;;22.02;20.05;;;17.40;97.20;;;;;;2131714;23;20200;-76
2023/05/08 05:41:35;;;;;;;21.60;19.57;;;17.40;97.20;;;;;;2131701;23;20176;-76
2023/05/08 05:42:25;;;;;;;22.15;20.05;;;17.40;97.20;;;;;;2131873;23;20635;-76
2023/05/08 05:43:17;;;;;;;22.63;20.40;;;17.50;97.20;;;;;;2131731;23;20650;-76
2023/05/08 05:44:08;;;;;;;21.88;19.70;;;17.50;97.20;;;;;;2131787;23;20187;-76
2023/05/08 05:45:00;;;;;;;22.73;20.60;;;17.50;97.20;;;;;;2131602;23;20172;-76
2023/05/08 05:45:51;;;;;;;21.05;19.25;;;17.50;97.20;;;;;;2131708;23;20176;-76
2023/05/08 05:46:44;;;;;;;21.70;19.70;;;17.50;97.20;;;;;;2131762;23;20200;-76
2023/05/08 05:47:35;;;;;;;20.88;18.92;;;17.50;97.20;;;;;;2131779;23;20187;-76
2023/05/08 05:48:26;;;;;;;21.47;19.40;;;17.50;97.20;;;;;;2131639;23;20178;-76
2023/05/08 05:49:17;;;;;;;20.52;18.63;;;17.50;97.20;;;;;;2131708;23;20176;-77
2023/05/08 05:50:10;;;;;;;18.87;17.27;;;17.50;97.20;;;;;;2131284;23;20638;-76
2023/05/08 05:51:01;;;;;;;20.92;18.95;;;17.50;97.20;;;;;;2131601;23;20208;-76
2023/05/08 05:51:52;;;;;;;18.00;16.50;;;17.50;97.20;;;;;;2131655;23;20650;-77
2023/05/08 05:52:43;;;;;;;18.20;16.67;;;17.60;97.20;;;;;;2131707;23;20403;-76
2023/05/08 05:53:35;;;;;;;17.67;16.07;;;17.60;97.20;;;;;;2131628;23;20639;-76
2023/05/08 05:54:25;;;;;;;17.58;15.98;;;17.60;97.20;;;;;;2131749;23;20180;-76
2023/05/08 05:55:17;;;;;;;17.43;15.97;;;17.60;97.20;;;;;;2131846;23;20175;-76
2023/05/08 05:56:08;;;;;;;17.52;16.02;;;17.60;97.20;;;;;;2131767;23;20496;-75
2023/05/08 05:57:00;;;;;;;17.67;16.17;;;17.70;97.20;;;;;;2131559;23;20217;-68
2023/05/08 05:57:50;;;;;;;17.30;15.77;;;17.70;97.20;;;;;;2131693;23;20179;-68
2023/05/08 05:58:44;;;;;;;17.83;16.33;;;17.70;97.20;;;;;;2131776;23;20172;-69
2023/05/08 05:59:34;;;;;;;17.33;15.75;;;17.70;97.20;;;;;;2131304;23;20223;-68
2023/05/08 06:00:26;;;;;;;17.60;16.10;;;17.80;97.20;;;;;;2131711;23;20172;-68
2023/05/08 06:01:17;;;;;;;16.60;15.20;;;17.80;97.20;;;;;;2131614;23;20183;-69
2023/05/08 06:02:13;;;;;;;18.03;16.50;;;17.80;97.20;;;;;;2131630;23;20178;-67
2023/05/08 06:03:04;;;;;;;18.80;17.00;;;17.80;97.20;;;;;;2131751;23;20246;-67
2023/05/08 06:03:56;;;;;;;16.60;15.10;;;17.80;97.20;;;;;;2131618;23;20643;-67
2023/05/08 06:04:48;;;;;;;18.08;16.50;;;17.90;97.20;;;;;;2131660;23;20279;-67
2023/05/08 06:05:41;;;;;;;18.38;16.65;;;17.90;97.20;;;;;;2131734;23;20172;-67
2023/05/08 06:06:31;;;;;;;18.20;16.60;;;17.90;97.20;;;;;;2131724;23;20504;-67
2023/05/08 06:07:23;;;;;;;17.20;15.70;;;17.90;97.20;;;;;;2131725;23;20491;-67
2023/05/08 06:08:15;;;;;;;17.42;15.93;;;17.90;97.20;;;;;;2131759;23;20206;-67
2023/05/08 06:09:07;;;;;;;16.90;15.40;;;17.90;97.20;;;;;;2131546;23;20175;-67
2023/05/08 06:09:58;;;;;;;17.45;15.82;;;18.00;97.20;;;;;;2131234;23;20624;-67
2023/05/08 06:10:50;;;;;;;16.95;15.55;;;18.00;97.20;;;;;;2131566;23;20196;-67
2023/05/08 06:11:41;;;;;;;17.23;15.52;;;18.00;97.20;;;;;;2131566;23;20631;-67
2023/05/08 06:12:33;;;;;;;17.73;16.23;;;18.00;97.20;;;;;;2131528;23;20639;-67
2023/05/08 06:13:23;;;;;;;17.63;16.17;;;18.00;97.20;;;;;;2131597;23;20195;-67
2023/05/08 06:14:15;;;;;;;18.67;16.80;;;18.00;97.20;;;;;;2131444;23;20175;-67
2023/05/08 06:15:07;;;;;;;17.73;16.23;;;18.00;97.20;;;;;;2131732;23;20511;-67
2023/05/08 06:15:59;;;;;;;16.95;15.45;;;18.00;97.20;;;;;;2131584;23;20176;-67
2023/05/08 06:16:50;;;;;;;19.02;17.23;;;18.00;97.20;;;;;;2131565;23;20657;-67
2023/05/08 06:17:43;;;;;;;18.13;16.52;;;18.00;97.20;;;;;;2131673;23;20184;-67
2023/05/08 06:18:33;;;;;;;16.02;14.63;;;18.00;97.20;;;;;;2131601;23;20220;-67
2023/05/08 06:19:27;;;;;;;18.50;16.80;;;18.00;97.20;;;;;;2131688;23;20172;-67
2023/05/08 06:20:18;;;;;;;17.83;16.33;;;18.00;97.20;;;;;;2131362;23;20648;-67
2023/05/08 06:21:10;;;;;;;17.77;16.07;;;18.00;97.20;;;;;;2131492;23;20739;-67
2023/05/08 06:22:00;;;;;;;16.67;15.27;;;18.00;97.20;;;;;;2131565;23;20470;-67
2023/05/08 06:22:52;;;;;;;16.13;14.77;;;18.00;97.20;;;;;;2131666;23;20251;-67
2023/05/08 06:23:43;;;;;;;17.92;16.20;;;17.90;97.20;;;;;;2131600;23;20180;-67
2023/05/08 06:24:35;;;;;;;16.53;14.97;;;17.90;97.20;;;;;;2131056;23;20706;-67
2023/05/08 06:25:27;;;;;;;16.25;14.85;;;17.90;97.20;;;;;;2131643;23;20399;-67
2023/05/08 06:26:18;;;;;;;17.05;15.65;;;17.90;97.20;;;;;;2131680;23;20230;-67
2023/05/08 06:27:09;;;;;;;15.90;14.40;;;17.90;97.20;;;;;;2130927;23;20176;-67
2023/05/08 06:28:02;;;;;;;16.10;14.70;;;17.90;97.20;;;;;;2130918;23;20178;-68
2023/05/08 06:28:53;;;;;;;16.83;15.45;;;17.90;97.20;;;;;;2130748;23;20411;-67
2023/05/08 06:29:44;;;;;;;17.33;15.63;;;17.90;97.20;;;;;;2130224;23;20237;-67
2023/05/08 06:30:35;;;;;;;17.08;15.68;;;17.90;97.20;;;;;;2130340;23;20213;-67
2023/05/08 06:31:27;;;;;;;18.47;16.87;;;17.90;97.20;;;;;;2130661;23;20172;-67
2023/05/08 06:32:18;;;;;;;18.38;16.83;;;17.90;97.20;;;;;;2130761;23;20183;-67
2023/05/08 06:33:11;;;;;;;19.05;17.20;;;17.90;97.20;;;;;;2130762;23;20226;-69
2023/05/08 06:34:02;;;;;;;17.83;16.17;;;17.90;97.20;;;;;;2130614;23;20180;-69
2023/05/08 06:34:54;;;;;;;19.30;17.60;;;17.90;97.20;;;;;;2130890;23;20198;-69
2023/05/08 06:35:46;;;;;;;18.10;16.45;;;17.90;97.20;;;;;;2130795;23;20240;-67
2023/05/08 06:36:37;;;;;;;17.45;15.85;;;17.90;97.20;;;;;;2130774;23;20178;-67
2023/05/08 06:37:28;;;;;;;16.67;15.30;;;17.90;97.20;;;;;;2130587;23;20202;-67
2023/05/08 06:38:20;;;;;;;18.20;16.60;;;17.90;97.20;;;;;;2130730;23;20172;-67
2023/05/08 06:39:11;;;;;;;16.70;15.10;;;17.90;97.20;;;;;;2130753;23;20203;-67
2023/05/08 06:40:03;;;;;;;19.23;16.67;;;17.90;97.20;;;;;;2130239;23;20172;-67
2023/05/08 06:40:54;;;;;;;16.45;15.00;;;17.90;97.20;;;;;;2130719;23;20254;-67
2023/05/08 06:41:47;;;;;;;17.83;16.23;;;17.90;97.20;;;;;;2130698;23;20184;-67
2023/05/08 06:42:38;;;;;;;18.48;16.98;;;17.90;97.20;;;;;;2131407;23;20403;-67
2023/05/08 06:43:29;;;;;;;16.60;15.20;;;17.90;97.20;;;;;;2131523;23;20179;-67
2023/05/08 06:44:20;;;;;;;17.02;15.52;;;17.90;97.20;;;;;;2131622;23;20172;-67
2023/05/08 06:45:12;;;;;;;16.90;15.30;;;17.90;97.20;;;;;;2131655;23;20238;-67
2023/05/08 06:46:03;;;;;;;18.33;16.63;;;17.90;97.20;;;;;;2131497;23;20176;-67
2023/05/08 06:46:55;;;;;;;18.35;16.85;;;17.90;97.20;;;;;;2131489;23;20250;-67
2023/05/08 06:47:45;;;;;;;18.27;16.50;;;17.90;97.20;;;;;;2131555;23;20539;-67
2023/05/08 06:48:38;;;;;;;17.90;16.17;;;17.90;97.20;;;;;;2131390;23;20229;-67
2023/05/08 06:49:29;;;;;;;16.48;15.07;;;17.80;97.20;;;;;;2131102;23;20180;-67
2023/05/08 06:50:21;;;;;;;18.47;16.87;;;17.80;97.20;;;;;;2131284;23;20178;-67
2023/05/08 06:51:12;;;;;;;17.05;15.63;;;17.80;97.20;;;;;;2131421;23;20176;-67
2023/05/08 06:52:04;;;;;;;18.00;16.47;;;17.80;97.20;;;;;;2131744;23;20178;-67
2023/05/08 06:52:54;;;;;;;18.35;16.75;;;17.70;97.20;;;;;;2131493;23;20176;-67
2023/05/08 06:53:46;;;;;;;19.00;17.40;;;17.70;97.20;;;;;;2131412;23;20222;-67
2023/05/08 06:54:37;;;;;;;18.15;16.55;;;17.70;97.20;;;;;;2131512;23;20187;-67
2023/05/08 06:55:29;;;;;;;19.30;17.60;;;17.70;97.20;;;;;;2131520;23;20646;-67
2023/05/08 06:56:19;;;;;;;17.88;16.27;;;17.70;97.20;;;;;;2131456;23;20175;-67
2023/05/08 06:57:13;;;;;;;16.77;15.37;;;17.70;97.20;;;;;;2131335;23;20196;-67
2023/05/08 06:58:04;;;;;;;17.08;15.52;;;17.80;97.20;;;;;;2131549;23;20407;-67
2023/05/08 06:58:55;;;;;;;17.83;16.23;;;17.80;97.20;;;;;;2131402;23;20793;-67
2023/05/08 06:59:46;;;;;;;18.50;17.00;;;17.80;97.20;;;;;;2131105;23;20184;-67
2023/05/08 07:00:38;;;;;;;17.63;16.13;;;17.80;97.20;;;;;;2131468;23;20194;-67
2023/05/08 07:01:28;;;;;;;18.05;16.45;;;17.80;97.20;;;;;;2131387;23;20184;-67
2023/05/08 07:02:20;;;;;;;17.53;16.00;;;17.80;97.20;;;;;;2131468;23;20172;-67
2023/05/08 07:03:11;;;;;;;17.02;15.63;;;17.80;97.20;;;;;;2131518;23;20176;-67
2023/05/08 07:04:05;;;;;;;17.23;15.77;;;17.80;97.20;;;;;;2131406;23;20171;-67
2023/05/08 07:04:55;;;;;;;17.35;15.85;;;17.80;97.20;;;;;;2131463;23;20741;-67
2023/05/08 07:05:47;;;;;;;18.57;16.97;;;17.80;97.20;;;;;;2131383;23;20781;-67
2023/05/08 07:06:38;;;;;;;18.13;16.30;;;17.80;97.20;;;;;;2131474;23;20179;-67
2023/05/08 07:07:29;;;;;;;17.50;16.07;;;17.80;97.20;;;;;;2131505;23;20164;-67
2023/05/08 07:08:20;;;;;;;16.70;15.27;;;17.80;97.20;;;;;;2131387;23;20172;-67
2023/05/08 07:09:12;;;;;;;16.20;14.80;;;17.80;97.20;;;;;;2131547;23;20235;-66
2023/05/08 07:10:03;;;;;;;17.08;15.55;;;17.80;97.20;;;;;;2131028;23;20243;-67
2023/05/08 07:10:55;;;;;;;16.35;14.20;;;17.80;97.20;;;;;;2131377;23;20206;-67
2023/05/08 07:11:46;;;;;;;15.85;14.55;;;17.80;97.20;;;;;;2131417;23;20495;-67
2023/05/08 07:12:38;;;;;;;14.20;12.90;;;17.80;97.20;;;;;;2131307;23;20175;-67
2023/05/08 07:13:29;;;;;;;16.45;14.95;;;17.80;97.20;;;;;;2131442;23;20187;-67
2023/05/08 07:14:21;;;;;;;16.93;15.20;;;17.80;97.20;;;;;;2131534;23;20174;-66
2023/05/08 07:15:12;;;;;;;14.00;12.80;;;17.80;97.20;;;;;;2131133;23;20410;-67
2023/05/08 07:16:09;;;;;;;14.68;13.48;;;17.80;97.20;;;;;;2131467;23;20615;-66
2023/05/08 07:17:05;;;;;;;13.88;12.68;;;17.80;97.20;;;;;;2131421;23;20239;-66
2023/05/08 07:17:57;;;;;;;14.48;13.27;;;17.80;97.20;;;;;;2131542;23;20561;-67
2023/05/08 07:18:48;;;;;;;15.50;14.10;;;17.80;97.20;;;;;;2131423;23;20636;-66
2023/05/08 07:19:41;;;;;;;15.33;13.90;;;17.80;97.20;;;;;;2130941;23;20621;-66
2023/05/08 07:20:32;;;;;;;15.45;14.15;;;17.80;97.20;;;;;;2131385;23;20196;-66
2023/05/08 07:21:23;;;;;;;13.80;12.60;;;17.80;97.20;;;;;;2131257;23;20172;-67
2023/05/08 07:22:14;;;;;;;13.98;12.77;;;17.80;97.20;;;;;;2131503;23;20180;-67
2023/05/08 07:23:06;;;;;;;13.97;12.77;;;17.80;97.20;;;;;;2131546;23;20175;-67
2023/05/08 07:23:57;;;;;;;14.50;13.40;;;17.80;97.20;;;;;;2131269;23;20230;-66
2023/05/08 07:24:49;;;;;;;15.77;14.40;;;17.90;97.20;;;;;;2131421;23;20226;-66
2023/05/08 07:25:39;;;;;;;14.38;13.00;;;17.80;97.20;;;;;;2131558;23;20258;-66
2023/05/08 07:26:31;;;;;;;15.13;13.83;;;17.80;97.20;;;;;;2131457;23;20179;-66
2023/05/08 07:27:22;;;;;;;14.70;13.40;;;17.80;97.20;;;;;;2131341;23;20766;-66
2023/05/08 07:28:13;;;;;;;15.17;13.73;;;17.80;97.20;;;;;;2131490;23;20476;-66
2023/05/08 07:29:04;;;;;;;15.40;14.00;;;17.80;97.20;;;;;;2131360;23;20191;-67
2023/05/08 07:29:57;;;;;;;13.67;12.47;;;17.80;97.20;;;;;;2131005;23;20172;-67
2023/05/08 07:30:48;;;;;;;14.73;13.40;;;17.80;97.20;;;;;;2131102;23;20276;-66
2023/05/08 07:31:40;;;;;;;14.93;13.73;;;17.90;97.20;;;;;;2131380;23;20168;-66
2023/05/08 07:32:31;;;;;;;14.60;13.18;;;17.90;97.20;;;;;;2131196;23;20180;-66
2023/05/08 07:33:22;;;;;;;14.40;13.20;;;17.90;97.20;;;;;;2131462;23;20178;-67
2023/05/08 07:34:13;;;;;;;13.80;12.60;;;17.90;97.20;;;;;;2131202;23;20187;-66
2023/05/08 07:35:10;;;;;;;14.37;13.17;;;18.00;97.20;;;;;;2131461;23;20186;-67
2023/05/08 07:36:00;;;;;;;15.18;13.95;;;18.00;97.20;;;;;;2131374;23;20164;-67
2023/05/08 07:36:52;;;;;;;14.40;13.20;;;18.00;97.20;;;;;;2131444;23;20178;-69
2023/05/08 07:37:43;;;;;;;14.95;13.65;;;18.00;97.20;;;;;;2131167;23;20192;-69
2023/05/08 07:38:35;;;;;;;15.17;13.90;;;18.10;97.20;;;;;;2131445;23;20175;-67
2023/05/08 07:39:26;;;;;;;14.32;13.13;;;18.10;97.20;;;;;;2131462;23;20545;-67
2023/05/08 07:40:18;;;;;;;14.00;12.67;;;18.10;97.20;;;;;;2131078;23;20226;-67
2023/05/08 07:41:09;;;;;;;14.38;13.18;;;18.20;97.20;;;;;;2131331;23;20179;-67
2023/05/08 07:42:00;;;;;;;13.77;12.67;;;18.20;97.20;;;;;;2131307;23;20176;-67
2023/05/08 07:42:51;;;;;;;14.93;13.63;;;18.20;97.20;;;;;;2131391;23;20187;-68
2023/05/08 07:43:44;;;;;;;14.27;13.00;;;18.30;97.20;;;;;;2131449;23;20172;-67
2023/05/08 07:44:34;;;;;;;14.20;13.00;;;18.30;97.20;;;;;;2131398;23;20176;-67
2023/05/08 07:45:26;;;;;;;13.27;12.13;;;18.40;97.20;;;;;;2130957;23;20172;-67
2023/05/08 07:46:17;;;;;;;14.98;13.52;;;18.40;97.20;;;;;;2131243;23;20176;-67
2023/05/08 07:47:09;;;;;;;14.10;12.63;;;18.40;97.20;;;;;;2131241;23;20262;-67
2023/05/08 07:48:00;;;;;;;14.40;13.10;;;18.50;97.20;;;;;;2131354;23;20970;-67
2023/05/08 07:48:51;;;;;;;13.87;12.53;;;18.50;97.20;;;;;;2131470;23;20628;-67
2023/05/08 07:49:42;;;;;;;14.73;13.43;;;18.50;97.20;;;;;;2130931;23;20414;-67
2023/05/08 07:50:35;;;;;;;14.20;12.80;;;18.50;97.20;;;;;;2131287;23;20188;-67
2023/05/08 07:51:26;;;;;;;13.77;12.48;;;18.50;97.20;;;;;;2131351;23;20526;-67
2023/05/08 07:52:18;;;;;;;13.90;12.70;;;18.50;97.20;;;;;;2131298;23;20207;-67
2023/05/08 07:53:09;;;;;;;13.73;12.35;;;18.50;97.20;;;;;;2131325;23;20179;-67
2023/05/08 07:54:00;;;;;;;14.40;13.03;;;18.50;97.20;;;;;;2131263;23;20178;-67
2023/05/08 07:54:51;;;;;;;12.85;11.85;;;18.50;97.20;;;;;;2131382;23;20891;-67
2023/05/08 07:55:43;;;;;;;13.23;12.00;;;18.50;97.20;;;;;;2131288;23;20508;-67
2023/05/08 07:56:34;;;;;;;12.30;11.27;;;18.40;97.20;;;;;;2131285;23;20180;-67
2023/05/08 07:57:25;;;;;;;13.33;12.23;;;18.40;97.20;;;;;;2131200;23;20172;-67
2023/05/08 07:58:16;;;;;;;14.73;13.48;;;18.40;97.20;;;;;;2131389;23;20183;-67
2023/05/08 07:59:08;;;;;;;14.43;13.07;;;18.40;97.20;;;;;;2131387;23;20175;-67
2023/05/08 08:00:00;;;;;;;14.15;13.00;;;18.30;97.20;;;;;;2130918;23;20491;-67
2023/05/08 08:00:52;;;;;;;14.35;12.95;;;18.30;97.20;;;;;;2131318;23;20246;-67
2023/05/08 08:01:46;;;;;;;13.88;12.60;;;18.30;97.20;;;;;;2131295;23;20237;-67
2023/05/08 08:02:37;;;;;;;14.23;13.02;;;18.20;97.20;;;;;;2131312;23;20172;-67
2023/05/08 08:03:28;;;;;;;13.50;12.30;;;18.20;97.20;;;;;;2131351;23;20179;-67
2023/05/08 08:04:20;;;;;;;14.30;13.00;;;18.20;97.20;;;;;;2131438;23;20172;-67
2023/05/08 08:05:11;;;;;;;14.75;13.55;;;18.20;97.20;;;;;;2131375;23;20175;-67
2023/05/08 08:06:04;;;;;;;13.73;12.52;;;18.20;97.20;;;;;;2131306;23;20650;-67
2023/05/08 08:06:55;;;;;;;12.82;11.70;;;18.30;97.20;;;;;;2131370;23;20184;-67
2023/05/08 08:07:47;;;;;;;12.50;11.50;;;18.30;97.20;;;;;;2131342;23;20168;-67
2023/05/08 08:08:38;;;;;;;12.43;11.40;;;18.30;97.20;;;;;;2131310;23;20187;-67
2023/05/08 08:09:29;;;;;;;12.13;11.13;;;18.30;97.20;;;;;;2131182;23;20178;-67
2023/05/08 08:10:20;;;;;;;11.32;9.73;;;18.40;97.20;;;;;;2130692;23;20426;-67
2023/05/08 08:11:12;;;;;;;10.90;9.90;;;18.40;97.20;;;;;;2131285;23;20195;-67
2023/05/08 08:12:02;;;;;;;10.60;9.73;;;18.40;97.20;;;;;;2131207;23;20203;-67
2023/05/08 08:12:54;;;;;;;10.67;9.70;;;18.40;97.20;;;;;;2131411;23;20172;-67
2023/05/08 08:13:45;;;;;;;10.18;9.38;;;18.50;97.20;;;;;;2131166;23;20184;-67
2023/05/08 08:14:36;;;;;;;10.60;9.70;;;18.50;97.20;;;;;;2131431;23;20178;-67
2023/05/08 08:15:27;;;;;;;9.77;8.95;;;18.50;97.20;;;;;;2131136;23;20175;-67
2023/05/08 08:16:19;;;;;;;9.33;8.53;;;18.50;97.20;;;;;;2131374;23;20178;-67
2023/05/08 08:17:10;;;;;;;10.20;9.30;;;18.50;97.20;;;;;;2131232;23;20198;-67
2023/05/08 08:18:01;;;;;;;10.47;9.57;;;18.50;97.20;;;;;;2131155;23;20200;-67
2023/05/08 08:18:52;;;;;;;10.85;9.15;;;18.50;97.20;;;;;;2131385;23;20187;-67
2023/05/08 08:19:44;;;;;;;10.17;9.30;;;18.50;97.20;;;;;;2130992;23;20179;-67
2023/05/08 08:20:35;;;;;;;10.52;9.73;;;18.50;97.20;;;;;;2131272;23;20203;-67
2023/05/08 08:21:28;;;;;;;9.60;8.70;;;18.50;97.20;;;;;;2131307;23;20171;-67
2023/05/08 08:22:19;;;;;;;10.10;9.30;;;18.50;97.20;;;;;;2131367;23;20176;-67
2023/05/08 08:23:11;;;;;;;10.90;10.00;;;18.50;97.20;;;;;;2131368;23;20207;-67
2023/05/08 08:24:01;;;;;;;10.57;9.52;;;18.50;97.20;;;;;;2131233;23;20740;-67
2023/05/08 08:24:55;;;;;;;11.13;10.13;;;18.50;97.20;;;;;;2131339;23;20234;-67
2023/05/08 08:25:45;;;;;;;10.40;9.50;;;18.50;97.20;;;;;;2131131;23;20184;-67
2023/05/08 08:26:37;;;;;;;11.63;10.50;;;18.50;97.20;;;;;;2131326;23;20168;-67
2023/05/08 08:27:28;;;;;;;9.77;9.05;;;18.50;97.20;;;;;;2131950;23;20402;-67
2023/05/08 08:28:20;;;;;;;11.03;10.13;;;18.50;97.20;;;;;;2132032;23;20168;-67
2023/05/08 08:29:10;;;;;;;10.30;9.55;;;18.50;97.20;;;;;;2131928;23;20182;-67
2023/05/08 08:30:02;;;;;;;10.27;9.40;;;18.50;97.20;;;;;;2131680;23;20254;-67
2023/05/08 08:30:53;;;;;;;9.27;8.38;;;18.50;97.20;;;;;;2131685;23;20208;-67
2023/05/08 08:31:44;;;;;;;10.10;9.13;;;18.50;97.20;;;;;;2131938;23;20172;-67
2023/05/08 08:32:35;;;;;;;9.93;9.13;;;18.50;97.20;;;;;;2132067;23;20225;-68
2023/05/08 08:33:27;;;;;;;7.80;7.10;;;18.50;97.20;;;;;;2132050;23;20176;-68
2023/05/08 08:34:18;;;;;;;7.93;7.22;;;18.50;97.20;;;;;;2132028;23;20207;-67
2023/05/08 08:35:10;;;;;;;8.80;8.10;;;18.50;97.20;;;;;;2132068;23;20297;-68
2023/05/08 08:36:01;;;;;;;7.85;7.10;;;18.50;97.20;;;;;;2131952;23;20180;-68
2023/05/08 08:36:54;;;;;;;6.80;6.30;;;18.50;97.20;;;;;;2131955;23;20211;-67
2023/05/08 08:37:45;;;;;;;7.80;7.20;;;18.40;97.20;;;;;;2132004;23;20180;-67
2023/05/08 08:38:36;;;;;;;7.87;7.27;;;18.50;97.20;;;;;;2132053;23;20263;-68
2023/05/08 08:39:31;;;;;;;8.45;7.72;;;18.50;97.20;;;;;;2131668;23;20176;-68
2023/05/08 08:40:22;;;;;;;8.65;7.88;;;18.40;97.20;;;;;;2131558;23;20172;-68
2023/05/08 08:41:13;;;;;;;8.13;7.53;;;18.40;97.20;;;;;;2131959;23;20183;-68
2023/05/08 08:42:05;;;;;;;8.20;7.50;;;18.40;97.20;;;;;;2131933;23;20172;-68
2023/05/08 08:42:56;;;;;;;7.93;7.22;;;18.40;97.20;;;;;;2131571;23;20187;-68
2023/05/08 08:43:48;;;;;;;8.00;7.40;;;18.40;97.20;;;;;;2132052;23;20179;-68
2023/05/08 08:44:38;;;;;;;7.93;7.22;;;18.40;97.20;;;;;;2132003;23;20416;-68
2023/05/08 08:45:31;;;;;;;8.50;7.70;;;18.30;97.20;;;;;;2131617;23;20175;-68
2023/05/08 08:46:25;;;;;;;8.63;7.80;;;18.30;97.20;;;;;;2131836;23;20183;-67
2023/05/08 08:47:18;;;;;;;8.27;7.68;;;18.30;97.20;;;;;;2131996;23;20176;-67
2023/05/08 08:48:11;;;;;;;9.07;8.38;;;18.30;97.20;;;;;;2131842;23;20177;-68
2023/05/08 08:49:04;;;;;;;8.40;7.70;;;18.30;97.20;;;;;;2131999;23;20639;-68
2023/05/08 08:49:58;;;;;;;8.70;8.00;;;18.30;97.20;;;;;;2131595;23;20187;-68
2023/05/08 08:50:57;;;;;;;9.63;8.40;;;18.30;97.20;;;;;;2131925;23;20203;-68
2023/05/08 08:51:51;;;;;;;8.52;7.82;;;18.20;97.20;;;;;;2131960;23;20164;-68
2023/05/08 08:52:55;;;;;;;9.30;8.40;;;18.20;97.20;;;;;;2131842;23;20197;-68
2023/05/08 08:53:50;;;;;;;8.75;7.97;;;18.20;97.20;;;;;;2131991;23;20176;-68
2023/05/08 08:54:46;;;;;;;9.00;8.20;;;18.10;97.20;;;;;;2132000;23;20164;-68
2023/05/08 08:55:40;;;;;;;8.90;8.10;;;18.00;97.20;;;;;;2132004;23;20607;-68
2023/05/08 08:56:32;;;;;;;9.75;8.85;;;18.00;97.20;;;;;;2132007;23;20176;-68
2023/05/08 08:57:25;;;;;;;9.55;8.75;;;18.00;97.20;;;;;;2131999;23;20179;-68
2023/05/08 08:58:21;;;;;;;8.77;7.97;;;17.90;97.20;;;;;;2131870;23;20200;-68
2023/05/08 08:59:13;;;;;;;8.82;8.13;;;17.90;97.20;;;;;;2131830;23;20235;-68
2023/05/08 09:00:09;;;;;;;8.82;8.13;;;17.90;97.20;;;;;;2131559;23;20250;-68
2023/05/08 09:01:02;;;;;;;9.60;8.70;;;17.90;97.20;;;;;;2131834;23;20667;-68
2023/05/08 09:01:58;;;;;;;8.20;7.50;;;17.90;97.20;;;;;;2131897;23;20247;-67
2023/05/08 09:02:49;;;;;;;7.80;7.20;;;17.90;97.20;;;;;;2131992;23;20164;-68
2023/05/08 09:03:41;;;;;;;7.63;6.93;;;17.90;97.20;;;;;;2131916;23;20176;-68
2023/05/08 09:04:31;;;;;;;7.65;7.05;;;17.80;97.20;;;;;;2131906;23;20409;-68
2023/05/08 09:05:23;;;;;;;7.70;7.10;;;17.80;97.20;;;;;;2131909;23;20183;-68
2023/05/08 09:06:16;;;;;;;7.40;6.80;;;17.80;97.20;;;;;;2131972;23;20210;-68
2023/05/08 09:07:07;;;;;;;6.90;6.40;;;17.70;97.20;;;;;;2131930;23;20184;-68
2023/05/08 09:08:01;;;;;;;6.90;6.40;;;17.80;97.20;;;;;;2131960;23;20678;-68
2023/05/08 09:08:55;;;;;;;7.20;6.60;;;17.80;97.20;;;;;;2131862;23;20180;-68
2023/05/08 09:09:47;;;;;;;6.70;6.20;;;17.80;97.20;;;;;;2131395;23;20255;-68
2023/05/08 09:10:38;;;;;;;7.30;6.70;;;17.80;97.20;;;;;;2131808;23;20278;-67
2023/05/08 09:11:30;;;;;;;6.37;5.87;;;17.80;97.20;;;;;;2131759;23;20177;-68
2023/05/08 09:12:20;;;;;;;5.40;5.00;;;17.80;97.20;;;;;;2131778;23;20184;-67
2023/05/08 09:13:12;;;;;;;6.07;5.57;;;17.90;97.20;;;;;;2131875;23;20171;-68
2023/05/08 09:14:03;;;;;;;5.97;5.47;;;17.90;97.20;;;;;;2131722;23;20184;-68
2023/05/08 09:14:55;;;;;;;6.17;5.67;;;17.90;97.20;;;;;;2131938;23;20172;-68
2023/05/08 09:15:45;;;;;;;6.70;6.10;;;18.00;97.20;;;;;;2131705;23;20187;-68
2023/05/08 09:16:38;;;;;;;6.13;5.63;;;18.00;97.20;;;;;;2131763;23;20178;-68
2023/05/08 09:17:29;;;;;;;6.25;5.65;;;18.00;97.20;;;;;;2131922;23;20176;-68
2023/05/08 09:18:21;;;;;;;6.43;5.93;;;18.00;97.20;;;;;;2131797;23;20200;-67
2023/05/08 09:19:13;;;;;;;6.43;5.93;;;18.00;97.20;;;;;;2131720;23;20403;-68
2023/05/08 09:20:07;;;;;;;5.70;5.30;;;18.10;97.20;;;;;;2131449;23;20176;-68
2023/05/08 09:20:59;;;;;;;6.10;5.50;;;18.10;97.20;;;;;;2131765;23;20207;-68
2023/05/08 09:21:51;;;;;;;6.20;5.70;;;18.10;97.20;;;;;;2131751;23;20500;-67
2023/05/08 09:22:43;;;;;;;5.90;5.40;;;18.10;97.20;;;;;;2131812;23;20183;-68
2023/05/08 09:23:37;;;;;;;6.03;5.53;;;18.10;97.20;;;;;;2131927;23;20243;-68